Time;durP1;ratioP1;P1;durP2;ratioP2;P2;SDS_P1;SDS_P2;PMS_P1;PMS_P2;Temp;Humidity;BMP_temperature;BMP_pressure;BME280_temperature;BME280_humidity;BME280_pressure;Samples;Min_cycle;Max_cycle;Signal;HPM_P1;HPM_P2
2022/07/27 00:00:58;;;;;;;7.57;6.18;;;;;;;;;;5096260;28;20615;-71
2022/07/27 00:03:24;;;;;;;7.13;5.55;;;;;;;;;;5094813;28;20032;-70
2022/07/27 00:05:50;;;;;;;7.05;5.85;;;;;;;;;;5093551;28;20023;-71
2022/07/27 00:08:19;;;;;;;7.03;5.72;;;;;;;;;;5099376;28;20030;-71
2022/07/27 00:10:45;;;;;;;7.47;5.97;;;;;;;;;;5092563;28;20020;-72
2022/07/27 00:13:11;;;;;;;6.95;5.97;;;;;;;;;;5092999;28;20028;-73
2022/07/27 00:15:37;;;;;;;6.20;5.47;;;;;;;;;;5097265;27;20053;-71
2022/07/27 00:18:04;;;;;;;8.60;6.30;;;;;;;;;;5094945;28;20063;-71
2022/07/27 00:20:31;;;;;;;7.97;6.40;;;;;;;;;;5099490;28;20023;-70
2022/07/27 00:22:57;;;;;;;8.20;6.07;;;;;;;;;;5100877;28;20039;-72
2022/07/27 00:25:25;;;;;;;7.78;6.28;;;;;;;;;;5096739;28;20032;-73
2022/07/27 00:27:51;;;;;;;9.40;6.07;;;;;;;;;;5106857;28;20114;-71
2022/07/27 00:30:18;;;;;;;11.32;6.22;;;;;;;;;;5092770;28;20028;-71
2022/07/27 00:32:44;;;;;;;7.40;6.22;;;;;;;;;;5095346;27;20380;-71
2022/07/27 00:35:10;;;;;;;10.95;6.22;;;;;;;;;;5092750;28;20069;-71
2022/07/27 00:37:36;;;;;;;9.70;6.40;;;;;;;;;;5098358;28;20062;-70
2022/07/27 00:40:03;;;;;;;9.48;6.10;;;;;;;;;;5096558;28;20032;-70
2022/07/27 00:42:30;;;;;;;7.47;6.38;;;;;;;;;;5093827;28;20123;-72
2022/07/27 00:44:57;;;;;;;9.10;5.80;;;;;;;;;;5108885;28;20051;-73
2022/07/27 00:47:24;;;;;;;7.35;6.30;;;;;;;;;;5097460;28;20098;-71
2022/07/27 00:49:50;;;;;;;8.77;6.80;;;;;;;;;;5095844;28;20047;-71
2022/07/27 00:52:17;;;;;;;7.50;6.72;;;;;;;;;;5100473;28;20025;-71
2022/07/27 00:54:43;;;;;;;6.53;5.85;;;;;;;;;;5109502;28;20036;-76
2022/07/27 00:57:10;;;;;;;6.95;5.82;;;;;;;;;;5110842;28;20020;-71
2022/07/27 00:59:36;;;;;;;7.30;5.90;;;;;;;;;;5102408;28;20020;-71
2022/07/27 01:02:03;;;;;;;8.43;6.43;;;;;;;;;;5098294;28;20031;-71
2022/07/27 01:04:29;;;;;;;8.55;6.53;;;;;;;;;;5092796;28;20088;-71
2022/07/27 01:06:55;;;;;;;6.88;5.70;;;;;;;;;;5099359;28;20381;-71
2022/07/27 01:12:08;;;;;;;7.15;6.18;;;;;;;;;;5096336;28;20109;-71
2022/07/27 01:14:34;;;;;;;8.88;6.63;;;;;;;;;;5097220;28;20016;-70
2022/07/27 01:17:00;;;;;;;7.50;5.97;;;;;;;;;;5095775;28;20015;-70
2022/07/27 01:19:26;;;;;;;6.90;6.00;;;;;;;;;;5092875;28;20042;-70
2022/07/27 01:21:52;;;;;;;8.13;6.35;;;;;;;;;;5092514;28;20020;-72
2022/07/27 01:24:19;;;;;;;8.50;6.63;;;;;;;;;;5106192;28;20058;-71
2022/07/27 01:26:45;;;;;;;8.20;6.57;;;;;;;;;;5092245;28;20069;-72
2022/07/27 01:29:11;;;;;;;7.10;6.20;;;;;;;;;;5092883;28;20028;-70
2022/07/27 01:31:37;;;;;;;8.77;7.55;;;;;;;;;;5101458;28;20023;-71
2022/07/27 01:34:04;;;;;;;9.35;6.88;;;;;;;;;;5097108;28;20028;-72
2022/07/27 01:36:30;;;;;;;9.98;6.82;;;;;;;;;;5098034;28;20458;-71
2022/07/27 01:38:56;;;;;;;8.52;7.30;;;;;;;;;;5097170;28;20102;-73
2022/07/27 01:41:22;;;;;;;8.38;7.35;;;;;;;;;;5102703;28;20111;-72
2022/07/27 01:43:48;;;;;;;12.38;7.20;;;;;;;;;;5102610;28;20027;-72
2022/07/27 01:46:15;;;;;;;9.32;7.07;;;;;;;;;;5109672;28;20024;-72
2022/07/27 01:48:42;;;;;;;9.63;7.60;;;;;;;;;;5090284;28;20016;-70
2022/07/27 01:51:08;;;;;;;9.73;7.80;;;;;;;;;;5104525;28;20101;-71
2022/07/27 01:53:34;;;;;;;9.02;7.50;;;;;;;;;;5095404;28;20404;-71
2022/07/27 01:56:00;;;;;;;11.48;7.45;;;;;;;;;;5095591;28;20384;-71
2022/07/27 01:58:26;;;;;;;9.35;8.27;;;;;;;;;;5098194;28;20020;-71
2022/07/27 02:00:52;;;;;;;8.95;7.15;;;;;;;;;;5099236;27;20047;-71
2022/07/27 02:03:18;;;;;;;9.70;7.80;;;;;;;;;;5103087;28;20055;-69
2022/07/27 02:05:44;;;;;;;10.02;7.88;;;;;;;;;;5098274;28;20188;-71
2022/07/27 02:08:10;;;;;;;9.18;7.30;;;;;;;;;;5095151;28;20027;-70
2022/07/27 02:12:34;;;;;;;11.27;7.70;;;;;;;;;;5100197;28;20024;-71
2022/07/27 02:13:23;;;;;;;10.63;7.75;;;;;;;;;;5096111;28;20123;-71
2022/07/27 02:15:49;;;;;;;10.98;7.95;;;;;;;;;;5107928;28;20020;-72
2022/07/27 02:18:16;;;;;;;10.02;8.05;;;;;;;;;;5097377;28;20504;-72
2022/07/27 02:20:42;;;;;;;10.02;8.10;;;;;;;;;;5097563;28;20534;-71
2022/07/27 02:23:08;;;;;;;10.50;8.15;;;;;;;;;;5107750;28;20073;-70
2022/07/27 02:25:36;;;;;;;12.55;8.43;;;;;;;;;;5094853;28;20466;-71
2022/07/27 02:28:03;;;;;;;10.48;8.77;;;;;;;;;;5101049;28;20028;-70
2022/07/27 02:30:29;;;;;;;11.00;7.78;;;;;;;;;;5095897;28;20492;-72
2022/07/27 02:32:55;;;;;;;10.07;8.52;;;;;;;;;;5107088;28;20035;-72
2022/07/27 02:35:21;;;;;;;10.18;8.43;;;;;;;;;;5096119;28;20031;-71
2022/07/27 02:37:47;;;;;;;12.73;9.10;;;;;;;;;;5104623;27;20016;-72
2022/07/27 02:40:15;;;;;;;11.15;9.00;;;;;;;;;;5100284;28;20024;-70
2022/07/27 02:42:42;;;;;;;9.10;8.20;;;;;;;;;;5100196;28;20045;-72
2022/07/27 02:45:08;;;;;;;10.27;9.18;;;;;;;;;;5106645;28;20028;-71
2022/07/27 02:47:34;;;;;;;15.05;9.00;;;;;;;;;;5093539;28;20035;-71
2022/07/27 02:50:01;;;;;;;11.07;9.38;;;;;;;;;;5099113;27;20048;-72
2022/07/27 02:52:27;;;;;;;12.20;10.35;;;;;;;;;;5104851;28;20024;-72
2022/07/27 02:54:53;;;;;;;12.85;10.10;;;;;;;;;;5095094;28;20052;-70
2022/07/27 02:57:20;;;;;;;12.45;10.00;;;;;;;;;;5094163;28;20012;-72
2022/07/27 02:59:46;;;;;;;12.98;10.55;;;;;;;;;;5109033;28;20081;-72
2022/07/27 03:02:12;;;;;;;13.48;10.88;;;;;;;;;;5108091;28;20154;-71
2022/07/27 03:04:38;;;;;;;11.95;10.32;;;;;;;;;;5095447;28;20028;-72
2022/07/27 03:07:04;;;;;;;16.65;11.45;;;;;;;;;;5106721;28;20039;-71
2022/07/27 03:09:30;;;;;;;14.90;10.98;;;;;;;;;;5095446;28;20016;-71
2022/07/27 03:11:56;;;;;;;12.85;10.45;;;;;;;;;;5099884;28;20063;-71
2022/07/27 03:14:22;;;;;;;11.50;10.30;;;;;;;;;;5097038;28;20040;-72
2022/07/27 03:16:48;;;;;;;12.48;10.30;;;;;;;;;;5102230;28;20412;-72
2022/07/27 03:19:14;;;;;;;12.35;10.50;;;;;;;;;;5096486;28;20383;-71
2022/07/27 03:21:40;;;;;;;13.55;10.77;;;;;;;;;;5103684;28;20138;-70
2022/07/27 03:24:06;;;;;;;13.07;10.57;;;;;;;;;;5097733;27;20070;-71
2022/07/27 03:26:32;;;;;;;11.27;9.90;;;;;;;;;;5102751;28;20051;-71
2022/07/27 03:28:59;;;;;;;15.27;10.45;;;;;;;;;;5093735;28;20382;-71
2022/07/27 03:31:25;;;;;;;13.77;10.43;;;;;;;;;;5094913;28;20020;-72
2022/07/27 03:33:52;;;;;;;12.45;10.38;;;;;;;;;;5097735;28;20030;-72
2022/07/27 03:36:18;;;;;;;11.07;9.60;;;;;;;;;;5077356;28;20069;-72
2022/07/27 03:38:44;;;;;;;14.35;10.60;;;;;;;;;;5095402;28;20028;-70
2022/07/27 03:41:10;;;;;;;11.63;10.43;;;;;;;;;;5096081;28;20040;-70
2022/07/27 03:43:37;;;;;;;13.30;11.02;;;;;;;;;;5111440;28;20127;-71
2022/07/27 03:46:03;;;;;;;15.80;10.32;;;;;;;;;;5112798;28;20043;-72
2022/07/27 03:48:29;;;;;;;15.63;11.48;;;;;;;;;;5101892;28;20024;-71
2022/07/27 03:50:55;;;;;;;13.85;11.18;;;;;;;;;;5102005;28;20031;-71
2022/07/27 03:53:23;;;;;;;13.30;10.75;;;;;;;;;;5098718;28;20035;-72
2022/07/27 03:55:50;;;;;;;12.77;11.30;;;;;;;;;;5097946;28;20131;-71
2022/07/27 03:58:17;;;;;;;13.57;11.35;;;;;;;;;;5092850;28;20028;-70
2022/07/27 04:00:46;;;;;;;13.98;11.43;;;;;;;;;;5095894;28;20073;-71
2022/07/27 04:03:12;;;;;;;17.95;11.10;;;;;;;;;;5094404;28;20031;-70
2022/07/27 04:05:38;;;;;;;15.32;11.25;;;;;;;;;;5102949;28;20028;-72
2022/07/27 04:08:04;;;;;;;13.52;11.77;;;;;;;;;;5093012;28;20028;-71
2022/07/27 04:10:30;;;;;;;14.77;12.10;;;;;;;;;;5095500;28;20034;-71
2022/07/27 04:12:59;;;;;;;15.02;11.73;;;;;;;;;;5097258;28;20431;-70
2022/07/27 04:15:33;;;;;;;15.40;12.30;;;;;;;;;;5103199;28;20023;-72
2022/07/27 04:18:00;;;;;;;12.68;11.38;;;;;;;;;;5086962;28;20392;-71
2022/07/27 04:20:26;;;;;;;15.23;12.70;;;;;;;;;;5096223;28;20024;-71
2022/07/27 04:22:52;;;;;;;14.18;12.00;;;;;;;;;;5092715;28;20289;-70
2022/07/27 04:25:18;;;;;;;14.07;12.45;;;;;;;;;;5105040;28;20063;-71
2022/07/27 04:27:44;;;;;;;14.73;12.45;;;;;;;;;;5093208;28;20026;-71
2022/07/27 04:30:10;;;;;;;14.63;12.40;;;;;;;;;;5095992;28;20120;-71
2022/07/27 04:32:37;;;;;;;14.52;12.40;;;;;;;;;;5099159;28;20358;-72
2022/07/27 04:35:03;;;;;;;14.35;12.85;;;;;;;;;;5109393;28;20034;-71
2022/07/27 04:37:29;;;;;;;14.70;13.10;;;;;;;;;;5100458;28;20488;-69
2022/07/27 04:39:59;;;;;;;16.45;13.50;;;;;;;;;;5096903;28;20020;-71
2022/07/27 04:42:25;;;;;;;16.83;13.88;;;;;;;;;;5097096;28;20016;-69
2022/07/27 04:44:51;;;;;;;17.38;13.50;;;;;;;;;;5106905;28;20038;-70
2022/07/27 04:47:17;;;;;;;15.50;13.80;;;;;;;;;;5092405;28;20036;-72
2022/07/27 04:49:43;;;;;;;21.92;13.68;;;;;;;;;;5100568;28;20393;-77
2022/07/27 04:52:10;;;;;;;17.60;14.00;;;;;;;;;;5093734;28;20058;-71
2022/07/27 04:54:36;;;;;;;22.73;15.02;;;;;;;;;;5096256;28;20097;-85
2022/07/27 04:57:02;;;;;;;18.35;14.20;;;;;;;;;;5097145;28;20012;-70
2022/07/27 04:59:28;;;;;;;16.88;14.43;;;;;;;;;;5101066;28;20020;-69
2022/07/27 05:01:54;;;;;;;17.20;14.90;;;;;;;;;;5095627;28;20032;-68
2022/07/27 05:04:20;;;;;;;17.52;15.65;;;;;;;;;;5100273;28;20063;-70
2022/07/27 05:06:46;;;;;;;16.23;14.05;;;;;;;;;;5094832;28;20032;-70
2022/07/27 05:09:12;;;;;;;15.38;13.73;;;;;;;;;;5095264;28;20095;-69
2022/07/27 05:11:38;;;;;;;19.83;13.23;;;;;;;;;;5099564;28;20027;-70
2022/07/27 05:14:04;;;;;;;18.17;13.93;;;;;;;;;;5100622;28;20016;-70
2022/07/27 05:16:30;;;;;;;15.35;13.70;;;;;;;;;;5104290;28;20084;-69
2022/07/27 05:18:56;;;;;;;17.80;13.43;;;;;;;;;;5102561;28;20370;-70
2022/07/27 05:21:23;;;;;;;15.23;13.15;;;;;;;;;;5102479;28;20024;-70
2022/07/27 05:23:49;;;;;;;15.60;13.40;;;;;;;;;;5097475;28;20044;-67
2022/07/27 05:26:16;;;;;;;13.38;12.07;;;;;;;;;;5097254;28;20192;-67
2022/07/27 05:28:42;;;;;;;16.75;14.40;;;;;;;;;;5105292;28;20373;-67
2022/07/27 05:31:08;;;;;;;16.23;13.90;;;;;;;;;;5101476;28;20035;-67
2022/07/27 05:33:34;;;;;;;17.13;13.88;;;;;;;;;;5103480;28;20020;-68
2022/07/27 05:38:39;;;;;;;15.65;13.95;;;;;;;;;;5063946;22;20111;-69
2022/07/27 05:41:10;;;;;;;17.50;14.90;;;;;;;;;;5010014;28;20069;-68
2022/07/27 05:43:36;;;;;;;15.77;14.15;;;;;;;;;;5033438;28;20037;-80
2022/07/27 05:46:02;;;;;;;17.70;14.63;;;;;;;;;;5032271;28;20116;-69
2022/07/27 05:48:28;;;;;;;17.33;14.27;;;;;;;;;;5033574;28;20422;-71
2022/07/27 05:50:54;;;;;;;16.80;15.10;;;;;;;;;;5014697;28;20399;-70
2022/07/27 05:53:20;;;;;;;15.63;13.85;;;;;;;;;;5032161;28;20025;-72
2022/07/27 05:55:46;;;;;;;16.30;13.93;;;;;;;;;;5032481;28;20033;-70
2022/07/27 05:58:12;;;;;;;16.95;14.15;;;;;;;;;;5034158;28;20064;-72
2022/07/27 06:00:38;;;;;;;15.88;14.25;;;;;;;;;;5032666;28;20021;-72
2022/07/27 06:03:04;;;;;;;20.23;14.95;;;;;;;;;;5035167;28;20035;-70
2022/07/27 06:05:30;;;;;;;16.92;14.32;;;;;;;;;;5034845;28;20068;-74
2022/07/27 06:08:01;;;;;;;17.15;13.75;;;;;;;;;;5010387;28;20128;-70
2022/07/27 06:10:31;;;;;;;18.75;13.48;;;;;;;;;;5032088;28;20014;-74
2022/07/27 06:12:57;;;;;;;26.88;14.60;;;;;;;;;;5032534;28;20091;-70
2022/07/27 06:15:24;;;;;;;18.48;14.07;;;;;;;;;;5030894;28;20022;-71
2022/07/27 06:17:52;;;;;;;16.35;13.85;;;;;;;;;;5029994;28;20033;-69
2022/07/27 06:20:18;;;;;;;14.98;13.48;;;;;;;;;;5028748;28;20018;-69
2022/07/27 06:22:45;;;;;;;14.85;13.35;;;;;;;;;;5030144;28;20025;-73
2022/07/27 06:25:12;;;;;;;15.45;13.60;;;;;;;;;;5012817;28;20105;-70
2022/07/27 06:27:38;;;;;;;17.58;14.15;;;;;;;;;;5002108;28;20483;-73
2022/07/27 06:30:05;;;;;;;15.95;14.23;;;;;;;;;;5034380;28;20035;-75
2022/07/27 06:32:31;;;;;;;17.38;14.95;;;;;;;;;;5029799;28;20036;-69
2022/07/27 06:34:59;;;;;;;16.15;13.93;;;;;;;;;;5030202;28;20025;-71
2022/07/27 06:37:26;;;;;;;16.88;14.55;;;;;;;;;;5042955;28;20106;-75
2022/07/27 06:39:52;;;;;;;18.00;15.02;;;;;;;;;;5040648;28;20048;-68
2022/07/27 06:42:22;;;;;;;16.50;14.00;;;;;;;;;;5017542;28;20025;-67
2022/07/27 06:44:48;;;;;;;17.30;13.57;;;;;;;;;;5011384;28;20042;-71
2022/07/27 06:47:14;;;;;;;17.77;14.57;;;;;;;;;;5040476;28;20033;-72
2022/07/27 06:49:40;;;;;;;15.63;13.95;;;;;;;;;;5031580;28;20017;-73
2022/07/27 06:52:06;;;;;;;14.88;13.35;;;;;;;;;;5031890;28;20021;-74
2022/07/27 06:54:33;;;;;;;15.80;14.23;;;;;;;;;;5035122;28;20017;-75
2022/07/27 06:56:59;;;;;;;15.30;13.80;;;;;;;;;;5032408;28;20490;-77
2022/07/27 06:59:25;;;;;;;33.78;15.35;;;;;;;;;;5046277;28;20512;-82
2022/07/27 07:01:52;;;;;;;15.50;13.45;;;;;;;;;;5021007;28;20030;-75
2022/07/27 07:04:18;;;;;;;14.70;12.25;;;;;;;;;;5032822;28;20590;-72
2022/07/27 07:06:44;;;;;;;30.13;13.63;;;;;;;;;;5025834;28;20037;-73
2022/07/27 07:09:10;;;;;;;14.30;12.90;;;;;;;;;;5032602;28;20018;-76
2022/07/27 07:11:37;;;;;;;15.07;13.57;;;;;;;;;;5020266;28;20319;-74
2022/07/27 07:14:03;;;;;;;15.18;13.40;;;;;;;;;;5035444;28;20021;-76
2022/07/27 07:16:29;;;;;;;17.95;13.82;;;;;;;;;;5034125;28;20052;-72
2022/07/27 07:18:55;;;;;;;15.73;13.55;;;;;;;;;;5035797;28;20032;-74
2022/07/27 07:21:21;;;;;;;14.07;12.65;;;;;;;;;;5032005;28;20037;-74
2022/07/27 07:23:48;;;;;;;15.73;12.82;;;;;;;;;;5032168;28;20030;-72
2022/07/27 07:26:14;;;;;;;15.85;13.63;;;;;;;;;;5036517;28;20034;-74
2022/07/27 07:28:40;;;;;;;16.33;14.65;;;;;;;;;;5040705;28;20109;-73
2022/07/27 07:31:06;;;;;;;17.98;14.10;;;;;;;;;;5018560;28;20044;-73
2022/07/27 07:33:32;;;;;;;15.25;13.50;;;;;;;;;;5032040;28;20071;-74
2022/07/27 07:35:58;;;;;;;15.35;13.90;;;;;;;;;;5031844;28;20034;-73
2022/07/27 07:38:24;;;;;;;15.13;13.50;;;;;;;;;;5032679;28;20045;-72
2022/07/27 07:40:50;;;;;;;14.02;12.65;;;;;;;;;;5026373;28;20121;-72
2022/07/27 07:43:16;;;;;;;13.40;12.10;;;;;;;;;;5037264;28;20478;-84
2022/07/27 07:45:43;;;;;;;13.38;11.43;;;;;;;;;;5035470;28;20037;-81
2022/07/27 07:48:10;;;;;;;13.73;12.27;;;;;;;;;;5031242;28;20021;-74
2022/07/27 07:50:36;;;;;;;14.20;12.18;;;;;;;;;;5048804;28;20528;-78
2022/07/27 07:53:02;;;;;;;13.73;12.18;;;;;;;;;;5048454;28;20077;-78
2022/07/27 07:55:29;;;;;;;17.25;12.07;;;;;;;;;;5033783;28;20025;-76
2022/07/27 07:57:56;;;;;;;13.52;12.13;;;;;;;;;;5015009;28;20415;-71
2022/07/27 08:00:25;;;;;;;13.82;12.25;;;;;;;;;;5032699;28;20033;-70
2022/07/27 08:02:53;;;;;;;12.60;11.30;;;;;;;;;;5008318;28;20029;-76
2022/07/27 08:05:19;;;;;;;14.57;11.52;;;;;;;;;;5013151;28;20018;-71
2022/07/27 08:07:45;;;;;;;14.40;12.80;;;;;;;;;;5031540;28;20037;-79
2022/07/27 08:10:13;;;;;;;16.45;12.15;;;;;;;;;;5034338;28;20033;-83
2022/07/27 08:12:42;;;;;;;12.80;10.50;;;;;;;;;;5023517;28;20033;-80
2022/07/27 08:15:09;;;;;;;12.02;10.82;;;;;;;;;;5029989;28;20017;-73
2022/07/27 08:17:35;;;;;;;14.93;9.95;;;;;;;;;;5029699;28;20041;-83
2022/07/27 08:20:01;;;;;;;11.25;10.13;;;;;;;;;;5013619;28;20022;-76
2022/07/27 08:22:27;;;;;;;26.27;10.63;;;;;;;;;;5037422;28;20025;-83
2022/07/27 08:24:53;;;;;;;13.75;10.68;;;;;;;;;;5035637;28;20036;-84
2022/07/27 08:27:19;;;;;;;14.70;11.05;;;;;;;;;;5039246;28;20387;-80
2022/07/27 08:29:45;;;;;;;12.15;10.88;;;;;;;;;;5037346;28;20156;-79
2022/07/27 08:32:11;;;;;;;12.50;10.55;;;;;;;;;;5032957;28;20506;-77
2022/07/27 08:34:38;;;;;;;12.10;10.90;;;;;;;;;;5037846;28;20128;-76
2022/07/27 08:37:04;;;;;;;12.13;10.82;;;;;;;;;;5048944;28;20132;-80
2022/07/27 08:39:30;;;;;;;14.55;11.93;;;;;;;;;;5032641;28;20025;-86
2022/07/27 08:42:03;;;;;;;15.60;10.60;;;;;;;;;;5014128;28;20029;-71
2022/07/27 08:44:29;;;;;;;12.60;11.18;;;;;;;;;;5014643;28;20025;-70
2022/07/27 08:46:57;;;;;;;12.77;11.43;;;;;;;;;;5041319;28;20855;-73
2022/07/27 08:49:23;;;;;;;15.02;11.40;;;;;;;;;;5034900;28;20045;-72
2022/07/27 08:51:50;;;;;;;16.92;11.20;;;;;;;;;;5032328;28;20517;-73
2022/07/27 08:54:16;;;;;;;12.38;11.13;;;;;;;;;;5047052;28;20036;-72
2022/07/27 08:56:42;;;;;;;11.88;10.68;;;;;;;;;;5034198;28;20029;-74
2022/07/27 08:59:09;;;;;;;13.80;11.18;;;;;;;;;;5037531;28;20029;-74
2022/07/27 09:01:35;;;;;;;12.65;10.27;;;;;;;;;;5029797;28;20032;-74
2022/07/27 09:04:01;;;;;;;13.13;10.57;;;;;;;;;;5032345;28;20030;-81
2022/07/27 09:06:44;;;;;;;12.98;9.95;;;;;;;;;;5033532;28;20037;-79
2022/07/27 09:09:17;;;;;;;12.98;10.90;;;;;;;;;;5029101;28;20037;-89
2022/07/27 09:11:43;;;;;;;11.38;10.18;;;;;;;;;;5031361;28;20419;-79
2022/07/27 09:14:13;;;;;;;14.63;10.45;;;;;;;;;;5030877;28;20699;-72
2022/07/27 09:16:40;;;;;;;14.27;10.90;;;;;;;;;;5031307;28;20036;-72
2022/07/27 09:19:10;;;;;;;13.63;9.80;;;;;;;;;;5042646;28;20030;-72
2022/07/27 09:21:37;;;;;;;14.65;11.07;;;;;;;;;;5028429;28;20029;-79
2022/07/27 09:24:09;;;;;;;11.20;9.65;;;;;;;;;;5038521;28;20483;-74
2022/07/27 09:26:36;;;;;;;14.57;10.85;;;;;;;;;;5030369;28;20487;-73
2022/07/27 09:29:09;;;;;;;15.30;10.27;;;;;;;;;;5034086;28;20033;-74
2022/07/27 09:31:43;;;;;;;12.07;10.48;;;;;;;;;;5029384;28;20104;-84
2022/07/27 09:34:09;;;;;;;11.57;10.38;;;;;;;;;;5035761;28;20525;-85
2022/07/27 09:36:48;;;;;;;11.45;10.25;;;;;;;;;;5032511;28;20025;-83
2022/07/27 09:39:17;;;;;;;12.30;10.15;;;;;;;;;;5035805;28;20503;-76
2022/07/27 09:41:45;;;;;;;27.05;10.77;;;;;;;;;;5034535;28;20065;-69
2022/07/27 09:44:12;;;;;;;12.65;10.13;;;;;;;;;;5033702;28;20459;-71
2022/07/27 09:46:39;;;;;;;17.40;10.10;;;;;;;;;;5030163;28;20034;-73
2022/07/27 09:49:06;;;;;;;14.27;9.82;;;;;;;;;;5031007;28;20403;-70
2022/07/27 09:51:32;;;;;;;12.20;10.10;;;;;;;;;;5032772;28;20036;-71
2022/07/27 09:53:59;;;;;;;11.27;9.02;;;;;;;;;;5046530;28;20021;-70
2022/07/27 09:56:28;;;;;;;13.55;9.40;;;;;;;;;;5036823;28;20027;-71
2022/07/27 09:58:56;;;;;;;11.27;9.77;;;;;;;;;;5044944;28;20037;-73
2022/07/27 10:01:22;;;;;;;12.07;10.10;;;;;;;;;;5016754;28;20025;-71
2022/07/27 10:03:49;;;;;;;22.23;9.85;;;;;;;;;;5033851;28;20048;-71
2022/07/27 10:06:16;;;;;;;14.32;9.23;;;;;;;;;;5032212;28;20033;-79
2022/07/27 10:08:46;;;;;;;12.55;9.23;;;;;;;;;;5034008;28;20026;-70
2022/07/27 10:11:16;;;;;;;11.63;8.85;;;;;;;;;;5034417;28;20022;-70
2022/07/27 10:13:46;;;;;;;11.38;9.02;;;;;;;;;;5015801;28;20029;-70
2022/07/27 10:16:22;;;;;;;10.60;9.48;;;;;;;;;;5033194;28;20030;-70
2022/07/27 10:19:07;;;;;;;9.18;8.27;;;;;;;;;;5034772;28;20025;-72
2022/07/27 10:21:34;;;;;;;12.52;9.05;;;;;;;;;;5013600;28;20022;-78
2022/07/27 10:24:07;;;;;;;10.88;8.70;;;;;;;;;;5029541;28;20022;-68
2022/07/27 10:26:35;;;;;;;11.52;9.00;;;;;;;;;;5033400;28;21838;-69
2022/07/27 10:29:06;;;;;;;10.18;8.55;;;;;;;;;;5034044;28;20092;-69
2022/07/27 10:31:37;;;;;;;10.35;9.05;;;;;;;;;;5033312;28;20029;-68
2022/07/27 10:34:12;;;;;;;14.80;9.65;;;;;;;;;;5033398;28;20072;-72
2022/07/27 10:36:44;;;;;;;11.05;9.10;;;;;;;;;;5032943;28;20029;-68
2022/07/27 10:39:11;;;;;;;10.88;9.77;;;;;;;;;;5015665;28;20483;-70
2022/07/27 10:41:42;;;;;;;11.45;9.25;;;;;;;;;;5015428;28;20033;-69
2022/07/27 10:44:17;;;;;;;15.63;9.43;;;;;;;;;;5016124;28;20033;-68
2022/07/27 10:46:52;;;;;;;10.40;9.20;;;;;;;;;;5033557;28;20056;-68
2022/07/27 10:49:22;;;;;;;11.98;9.70;;;;;;;;;;5031489;28;20501;-69
2022/07/27 10:51:54;;;;;;;11.25;9.27;;;;;;;;;;5016164;28;20045;-71
2022/07/27 10:54:26;;;;;;;11.93;9.18;;;;;;;;;;5033676;28;20017;-69
2022/07/27 10:56:56;;;;;;;13.77;9.68;;;;;;;;;;5033736;28;20029;-69
2022/07/27 10:59:34;;;;;;;11.95;9.60;;;;;;;;;;5030511;28;20068;-69
2022/07/27 11:02:00;;;;;;;11.07;9.25;;;;;;;;;;5033662;28;20026;-68
2022/07/27 11:04:27;;;;;;;10.90;9.80;;;;;;;;;;5033086;28;20112;-69
2022/07/27 11:06:59;;;;;;;12.93;9.80;;;;;;;;;;5031867;28;20478;-71
2022/07/27 11:09:37;;;;;;;11.85;9.40;;;;;;;;;;5032701;28;20082;-72
2022/07/27 11:12:07;;;;;;;10.20;9.07;;;;;;;;;;5032791;28;20035;-70
2022/07/27 11:14:48;;;;;;;11.35;9.25;;;;;;;;;;5023063;28;20014;-71
2022/07/27 11:17:21;;;;;;;12.43;9.70;;;;;;;;;;5033453;28;20443;-70
2022/07/27 11:19:57;;;;;;;9.50;8.50;;;;;;;;;;5032973;28;20030;-69
2022/07/27 11:22:34;;;;;;;13.95;9.55;;;;;;;;;;5040286;28;20109;-69
2022/07/27 11:25:03;;;;;;;11.63;8.52;;;;;;;;;;5033134;28;20035;-70
2022/07/27 11:27:30;;;;;;;17.73;8.00;;;;;;;;;;5033099;28;20040;-70
2022/07/27 11:29:56;;;;;;;10.20;9.07;;;;;;;;;;5016694;28;20048;-69
2022/07/27 11:32:22;;;;;;;10.07;8.75;;;;;;;;;;5033055;28;20037;-69
2022/07/27 11:34:49;;;;;;;14.18;8.75;;;;;;;;;;5032892;28;20041;-70
2022/07/27 11:37:18;;;;;;;13.20;8.77;;;;;;;;;;5031968;28;20042;-73
2022/07/27 11:39:45;;;;;;;11.07;8.60;;;;;;;;;;5032496;28;20025;-72
2022/07/27 11:42:16;;;;;;;9.75;8.60;;;;;;;;;;5016485;28;20024;-70
2022/07/27 11:44:43;;;;;;;13.32;8.50;;;;;;;;;;5032654;28;20025;-70
2022/07/27 11:47:15;;;;;;;9.68;8.48;;;;;;;;;;5032431;28;20029;-69
2022/07/27 11:49:41;;;;;;;14.70;8.80;;;;;;;;;;5032742;28;20526;-72
2022/07/27 11:52:08;;;;;;;10.27;8.27;;;;;;;;;;5030706;28;20116;-69
2022/07/27 11:54:35;;;;;;;10.45;7.93;;;;;;;;;;5031937;28;20017;-70
2022/07/27 11:57:06;;;;;;;9.55;7.30;;;;;;;;;;5031200;28;20112;-79
2022/07/27 12:00:06;;;;;;;10.20;7.75;;;;;;;;;;5031819;28;20026;-70
2022/07/27 12:02:51;;;;;;;;;;;;;;;;;;;;;
2022/07/27 12:05:18;;;;;;;8.50;7.47;;;;;;;;;;5031005;28;20474;-70
2022/07/27 12:07:44;;;;;;;9.82;7.53;;;;;;;;;;5033929;28;20041;-70
2022/07/27 12:10:12;;;;;;;10.27;8.00;;;;;;;;;;5032204;28;20620;-69
2022/07/27 12:12:48;;;;;;;10.32;8.93;;;;;;;;;;5032341;28;20068;-69
2022/07/27 12:15:14;;;;;;;11.27;8.52;;;;;;;;;;5014738;28;20112;-70
2022/07/27 12:17:42;;;;;;;9.65;8.18;;;;;;;;;;5026961;28;20028;-69
2022/07/27 12:20:19;;;;;;;11.55;8.60;;;;;;;;;;5032531;28;20068;-71
2022/07/27 12:23:17;;;;;;;10.35;8.30;;;;;;;;;;5012602;28;20450;-69
2022/07/27 12:25:44;;;;;;;9.98;8.23;;;;;;;;;;5005877;28;20439;-69
2022/07/27 12:28:12;;;;;;;10.98;8.63;;;;;;;;;;5032103;28;20108;-72
2022/07/27 12:30:40;;;;;;;8.77;6.97;;;;;;;;;;5026822;28;20053;-69
2022/07/27 12:33:25;;;;;;;9.45;6.80;;;;;;;;;;5031858;28;20029;-70
2022/07/27 12:35:57;;;;;;;7.28;6.47;;;;;;;;;;5028311;28;20546;-70
2022/07/27 12:38:23;;;;;;;10.25;6.63;;;;;;;;;;5027171;28;20049;-70
2022/07/27 12:40:54;;;;;;;10.57;8.15;;;;;;;;;;5031990;28;20081;-69
2022/07/27 12:43:21;;;;;;;13.80;8.32;;;;;;;;;;5031434;28;20476;-70
2022/07/27 12:45:48;;;;;;;13.55;8.32;;;;;;;;;;5031474;28;20049;-69
2022/07/27 12:48:24;;;;;;;11.82;7.78;;;;;;;;;;5031130;28;20052;-69
2022/07/27 12:51:01;;;;;;;11.75;7.60;;;;;;;;;;5031698;28;20026;-70
2022/07/27 12:53:27;;;;;;;12.90;7.30;;;;;;;;;;5031923;28;20045;-70
2022/07/27 12:55:54;;;;;;;11.45;7.63;;;;;;;;;;5029513;28;20039;-70
2022/07/27 13:01:30;;;;;;;13.65;8.68;;;;;;;;;;5025606;28;20025;-70
2022/07/27 13:04:11;;;;;;;11.52;7.43;;;;;;;;;;5026515;28;20033;-70
2022/07/27 13:06:44;;;;;;;10.05;8.68;;;;;;;;;;5027081;28;20041;-70
2022/07/27 13:09:20;;;;;;;13.07;7.70;;;;;;;;;;5027667;28;20116;-71
2022/07/27 13:11:46;;;;;;;11.10;8.15;;;;;;;;;;5023493;28;20041;-69
2022/07/27 13:14:15;;;;;;;9.55;6.93;;;;;;;;;;5019263;28;20032;-71
2022/07/27 13:16:41;;;;;;;9.23;6.85;;;;;;;;;;5018876;28;20499;-84
2022/07/27 13:19:07;;;;;;;11.13;6.70;;;;;;;;;;5016181;28;20048;-76
2022/07/27 13:21:34;;;;;;;10.40;6.85;;;;;;;;;;5015854;28;20030;-79
2022/07/27 13:24:01;;;;;;;9.25;6.30;;;;;;;;;;5021368;28;20022;-70
2022/07/27 13:26:27;;;;;;;18.60;6.80;;;;;;;;;;5019160;28;20046;-71
2022/07/27 13:28:53;;;;;;;7.82;5.53;;;;;;;;;;5020069;28;20022;-71
2022/07/27 13:31:20;;;;;;;9.45;6.28;;;;;;;;;;5034340;28;20455;-73
2022/07/27 13:33:46;;;;;;;9.18;5.70;;;;;;;;;;5035213;28;20494;-75
2022/07/27 13:36:12;;;;;;;8.15;6.50;;;;;;;;;;5035027;28;20108;-74
2022/07/27 13:38:38;;;;;;;11.77;5.88;;;;;;;;;;5033760;28;20049;-76
2022/07/27 13:41:04;;;;;;;8.05;5.65;;;;;;;;;;5035171;28;20026;-78
2022/07/27 13:43:30;;;;;;;6.85;5.63;;;;;;;;;;5034949;28;20113;-71
2022/07/27 13:45:57;;;;;;;9.52;4.95;;;;;;;;;;5034416;28;20500;-75
2022/07/27 13:48:23;;;;;;;9.13;5.45;;;;;;;;;;5034744;28;20064;-73
2022/07/27 13:50:49;;;;;;;13.05;4.80;;;;;;;;;;5034904;28;20036;-79
2022/07/27 13:53:16;;;;;;;8.35;4.20;;;;;;;;;;5034853;28;20021;-67
2022/07/27 13:55:43;;;;;;;5.72;4.10;;;;;;;;;;5034972;28;20103;-76
2022/07/27 13:58:10;;;;;;;7.78;4.60;;;;;;;;;;5034756;28;20052;-76
2022/07/27 14:00:39;;;;;;;6.13;3.88;;;;;;;;;;5033122;28;20441;-80
2022/07/27 14:03:07;;;;;;;6.40;4.15;;;;;;;;;;5031765;28;20025;-70
2022/07/27 14:05:35;;;;;;;5.10;4.07;;;;;;;;;;5034937;28;20048;-69
2022/07/27 14:08:01;;;;;;;6.30;4.18;;;;;;;;;;5037076;28;20034;-70
2022/07/27 14:10:30;;;;;;;9.98;4.63;;;;;;;;;;5033188;28;20475;-69
2022/07/27 14:12:59;;;;;;;7.07;4.40;;;;;;;;;;5032761;28;20041;-71
2022/07/27 14:15:26;;;;;;;7.30;4.10;;;;;;;;;;5033285;28;20084;-70
2022/07/27 14:17:52;;;;;;;7.50;4.63;;;;;;;;;;5034052;28;20095;-71
2022/07/27 14:20:18;;;;;;;5.65;4.10;;;;;;;;;;5034842;28;20022;-69
2022/07/27 14:22:44;;;;;;;9.27;4.10;;;;;;;;;;5034221;28;20032;-69
2022/07/27 14:25:10;;;;;;;6.88;3.60;;;;;;;;;;5033608;28;20044;-68
2022/07/27 14:27:40;;;;;;;6.13;3.90;;;;;;;;;;5034521;28;20039;-72
2022/07/27 14:30:06;;;;;;;8.77;4.40;;;;;;;;;;5033850;28;20034;-70
2022/07/27 14:32:32;;;;;;;7.00;3.70;;;;;;;;;;5034143;28;20045;-69
2022/07/27 14:34:59;;;;;;;7.07;3.72;;;;;;;;;;5033915;28;20025;-68
2022/07/27 14:37:25;;;;;;;18.77;4.63;;;;;;;;;;5033821;28;20495;-70
2022/07/27 14:39:54;;;;;;;6.80;3.83;;;;;;;;;;5034076;28;20102;-69